createdAt,value
2022-11-10T00:04:30.776Z,144.30
2022-11-10T00:08:51.635Z,133.55
2022-11-10T00:13:12.113Z,116.60
2022-11-10T00:17:36.325Z,133.27
2022-11-10T00:21:56.923Z,133.15
2022-11-10T00:26:19.899Z,113.57
2022-11-10T00:30:43.393Z,122.00
2022-11-10T00:35:07.777Z,138.02
2022-11-10T00:39:28.238Z,140.77
2022-11-10T00:43:49.349Z,144.07
2022-11-10T00:48:09.767Z,127.85
2022-11-10T00:52:30.067Z,139.48
2022-11-10T00:56:50.900Z,118.50
2022-11-10T01:01:12.043Z,115.30
2022-11-10T01:05:35.378Z,146.60
2022-11-10T01:09:55.593Z,128.70
2022-11-10T01:14:15.616Z,113.80
2022-11-10T01:18:36.541Z,167.43
2022-11-10T01:22:56.937Z,128.57
2022-11-10T01:27:17.461Z,151.20
2022-11-10T01:31:38.164Z,127.00
2022-11-10T01:35:59.009Z,124.43
2022-11-10T01:40:19.850Z,163.93
2022-11-10T01:44:42.017Z,124.07
2022-11-10T01:49:04.194Z,187.05
2022-11-10T01:53:27.833Z,187.82
2022-11-10T01:57:48.839Z,186.57
2022-11-10T02:02:20.633Z,160.07
2022-11-10T02:06:43.211Z,167.25
2022-11-10T02:11:04.619Z,159.50
2022-11-10T02:15:25.205Z,123.95
2022-11-10T02:19:45.636Z,143.75
2022-11-10T02:24:05.738Z,144.02
2022-11-10T02:28:27.228Z,130.88
2022-11-10T02:32:47.215Z,153.88
2022-11-10T02:37:07.906Z,127.55
2022-11-10T02:41:28.145Z,136.30
2022-11-10T02:45:48.884Z,133.93
2022-11-10T02:50:09.374Z,135.27
2022-11-10T02:54:29.617Z,132.68
2022-11-10T02:58:49.674Z,140.98
2022-11-10T03:03:10.315Z,146.38
2022-11-10T03:07:30.430Z,133.20
2022-11-10T03:11:51.261Z,142.13
2022-11-10T03:16:11.262Z,119.28
2022-11-10T03:20:31.867Z,108.78
2022-11-10T03:24:51.962Z,148.00
2022-11-10T03:29:12.559Z,116.75
2022-11-10T03:33:32.981Z,142.35
2022-11-10T03:37:53.379Z,116.07
2022-11-10T03:42:13.487Z,120.32
2022-11-10T03:46:33.957Z,141.73
2022-11-10T03:50:54.288Z,128.75
2022-11-10T03:55:17.347Z,127.15
2022-11-10T03:59:37.675Z,123.53
2022-11-10T04:03:58.308Z,126.28
2022-11-10T04:08:37.076Z,151.93
2022-11-10T04:13:16.367Z,120.95
2022-11-10T04:17:37.027Z,122.27
2022-11-10T04:21:58.096Z,155.07
2022-11-10T04:26:29.817Z,141.73
2022-11-10T04:30:50.294Z,147.45
2022-11-10T04:35:10.417Z,139.32
2022-11-10T04:39:30.682Z,133.73
2022-11-10T04:43:51.195Z,140.18
2022-11-10T04:48:11.733Z,135.85
2022-11-10T04:52:31.828Z,134.27
2022-11-10T04:56:52.602Z,138.00
2022-11-10T05:01:14.574Z,140.50
2022-11-10T05:05:35.532Z,136.43
2022-11-10T05:09:56.012Z,174.95
2022-11-10T05:14:16.518Z,139.30
2022-11-10T05:18:37.278Z,120.07
2022-11-10T05:23:16.343Z,127.22
2022-11-10T05:27:36.669Z,133.80
2022-11-10T05:31:57.107Z,145.80
2022-11-10T05:36:17.286Z,143.90
2022-11-10T05:40:37.922Z,169.32
2022-11-10T05:44:57.761Z,178.98
2022-11-10T05:49:18.437Z,149.20
2022-11-10T05:53:38.434Z,164.02
2022-11-10T05:57:58.952Z,140.38
2022-11-10T06:02:19.133Z,163.23
2022-11-10T06:06:39.763Z,150.85
2022-11-10T06:10:59.790Z,140.05
2022-11-10T06:15:20.902Z,157.98
2022-11-10T06:19:41.034Z,167.27
2022-11-10T06:24:01.541Z,157.15
2022-11-10T06:28:21.709Z,149.68
2022-11-10T06:32:44.187Z,163.98
2022-11-10T06:37:04.240Z,157.52
2022-11-10T06:41:25.537Z,158.68
2022-11-10T06:45:45.978Z,142.23
2022-11-10T06:50:07.069Z,141.82
2022-11-10T06:54:27.298Z,137.20
2022-11-10T06:58:47.977Z,165.27
2022-11-10T07:03:12.787Z,180.63
2022-11-10T07:07:33.158Z,166.20
2022-11-10T07:11:53.134Z,158.80
2022-11-10T07:16:13.943Z,160.70
2022-11-10T07:20:35.964Z,144.98
2022-11-10T07:24:56.933Z,139.20
2022-11-10T07:29:17.122Z,133.75
2022-11-10T07:33:37.654Z,142.85
2022-11-10T07:38:01.254Z,178.88
2022-11-10T07:42:21.353Z,200.95
2022-11-10T07:46:41.494Z,144.88
2022-11-10T07:51:01.973Z,224.15
2022-11-10T07:55:22.618Z,153.77
2022-11-10T07:59:43.299Z,188.15
2022-11-10T08:04:03.897Z,184.43
2022-11-10T08:08:24.180Z,178.50
2022-11-10T08:12:44.688Z,173.93
2022-11-10T08:17:05.361Z,199.23
2022-11-10T08:21:26.019Z,190.45
2022-11-10T08:25:47.895Z,196.35
2022-11-10T08:30:08.295Z,184.98
2022-11-10T08:34:28.825Z,189.48
2022-11-10T08:38:48.883Z,240.02
2022-11-10T08:43:10.266Z,188.90
2022-11-10T08:47:30.555Z,190.48
2022-11-10T08:51:50.947Z,201.23
2022-11-10T08:56:11.076Z,173.88
2022-11-10T09:00:32.342Z,169.90
2022-11-10T09:04:53.583Z,145.30
2022-11-10T09:09:14.451Z,161.60
2022-11-10T09:13:35.209Z,154.45
2022-11-10T09:18:01.782Z,135.45
2022-11-10T09:22:22.490Z,132.02
2022-11-10T09:26:45.303Z,123.65
2022-11-10T09:31:05.931Z,138.50
2022-11-10T09:35:27.282Z,123.97
2022-11-10T09:39:47.549Z,120.68
2022-11-10T09:44:30.929Z,117.80
2022-11-10T09:48:56.314Z,119.32
2022-11-10T09:53:24.846Z,121.90
2022-11-10T09:57:49.095Z,119.80
2022-11-10T10:02:31.806Z,109.60
2022-11-10T10:07:11.498Z,104.07
2022-11-10T10:12:07.146Z,98.22
2022-11-10T10:16:36.353Z,100.30
2022-11-10T10:21:17.705Z,97.32
2022-11-10T10:25:40.856Z,98.05
2022-11-10T10:30:01.963Z,95.57
2022-11-10T10:34:27.364Z,93.55
2022-11-10T10:38:52.541Z,92.18
2022-11-10T10:43:12.796Z,95.90
2022-11-10T10:47:37.496Z,90.90
2022-11-10T10:52:18.182Z,86.15
2022-11-10T10:56:38.719Z,80.53
2022-11-10T11:01:21.361Z,85.85
2022-11-10T11:05:42.091Z,75.30
2022-11-10T11:10:02.296Z,68.65
2022-11-10T11:14:25.693Z,72.82
2022-11-10T11:18:46.030Z,69.13
2022-11-10T11:23:25.659Z,62.38
2022-11-10T11:27:58.136Z,58.72
2022-11-10T11:32:34.766Z,64.13
2022-11-10T11:37:12.050Z,54.85
2022-11-10T11:41:49.262Z,53.60
2022-11-10T11:46:21.297Z,57.35
2022-11-10T11:50:45.903Z,58.22
2022-11-10T11:55:53.934Z,49.80
2022-11-10T12:00:17.457Z,53.65
2022-11-10T12:05:03.022Z,51.40
2022-11-10T12:09:28.792Z,51.90
2022-11-10T12:14:49.322Z,46.97
2022-11-10T12:19:46.859Z,40.70
2022-11-10T12:24:19.070Z,55.00
2022-11-10T12:28:47.725Z,40.75
2022-11-10T12:33:26.919Z,34.03
2022-11-10T12:37:54.018Z,38.97
2022-11-10T12:42:19.806Z,33.63
2022-11-10T12:46:42.319Z,40.30
2022-11-10T12:51:13.743Z,40.30
2022-11-10T12:55:45.556Z,42.67
2022-11-10T13:00:27.447Z,38.47
2022-11-10T13:05:28.014Z,34.45
2022-11-10T13:09:48.633Z,42.07
2022-11-10T13:14:28.045Z,32.67
2022-11-10T13:18:53.431Z,33.47
2022-11-10T13:23:29.950Z,33.78
2022-11-10T13:27:52.143Z,36.03
2022-11-10T13:32:15.793Z,37.70
2022-11-10T13:36:43.279Z,36.63
2022-11-10T13:41:33.862Z,34.17
2022-11-10T13:46:02.873Z,35.78
2022-11-10T13:50:40.562Z,31.88
2022-11-10T13:55:31.566Z,39.22
2022-11-10T13:59:56.531Z,32.50
2022-11-10T14:04:35.621Z,32.00
2022-11-10T14:09:02.838Z,33.63
2022-11-10T14:13:32.055Z,37.42
2022-11-10T14:17:56.047Z,42.17
2022-11-10T14:22:31.891Z,39.92
2022-11-10T14:26:53.736Z,32.45
2022-11-10T14:31:23.558Z,41.55
2022-11-10T14:35:53.046Z,63.83
2022-11-10T14:44:37.805Z,73.93
2022-11-10T14:48:59.657Z,46.13
2022-11-10T14:53:39.164Z,44.22
2022-11-10T15:02:25.654Z,54.72
2022-11-10T15:06:48.945Z,78.57
2022-11-10T15:11:40.292Z,94.43
2022-11-10T15:16:22.250Z,103.95
2022-11-10T15:20:42.432Z,92.82
2022-11-10T15:25:15.648Z,84.93
2022-11-10T15:29:36.038Z,136.20
2022-11-10T15:33:59.458Z,165.35
2022-11-10T15:38:27.478Z,127.78
2022-11-10T15:43:08.286Z,142.80
2022-11-10T15:51:52.205Z,239.55
2022-11-10T15:56:18.464Z,101.60
2022-11-10T16:00:39.167Z,80.35
2022-11-10T16:05:00.293Z,103.68
2022-11-10T16:09:20.826Z,136.65
2022-11-10T16:13:41.383Z,95.35
2022-11-10T16:18:01.998Z,75.15
2022-11-10T16:22:22.373Z,74.80
2022-11-10T16:26:42.932Z,79.15
2022-11-10T16:31:03.354Z,89.20
2022-11-10T16:35:24.200Z,72.90
2022-11-10T16:39:44.424Z,68.30
2022-11-10T16:44:13.192Z,52.33
2022-11-10T16:48:36.104Z,52.43
2022-11-10T16:52:57.270Z,68.20
2022-11-10T16:57:17.698Z,38.13
2022-11-10T17:01:41.737Z,66.75
2022-11-10T17:06:02.832Z,38.45
2022-11-10T17:10:23.568Z,48.58
2022-11-10T17:14:43.861Z,46.42
2022-11-10T17:19:07.526Z,118.32
2022-11-10T17:23:28.137Z,47.53
2022-11-10T17:27:48.584Z,56.38
2022-11-10T17:32:08.831Z,49.25
2022-11-10T17:36:30.558Z,56.50
2022-11-10T17:40:51.956Z,66.82
2022-11-10T17:45:20.855Z,74.15
2022-11-10T17:49:41.155Z,105.35
2022-11-10T17:54:05.785Z,49.70
2022-11-10T17:58:26.344Z,83.28
2022-11-10T18:02:52.544Z,58.92
2022-11-10T18:07:15.385Z,65.63
2022-11-10T18:11:36.040Z,61.30
2022-11-10T18:15:59.765Z,66.32
2022-11-10T18:20:20.089Z,72.95
2022-11-10T18:24:40.238Z,51.92
2022-11-10T18:29:00.748Z,66.65
2022-11-10T18:33:21.607Z,112.85
2022-11-10T18:37:42.340Z,122.93
2022-11-10T18:42:02.848Z,110.53
2022-11-10T18:46:23.589Z,118.43
2022-11-10T18:50:44.126Z,197.63
2022-11-10T18:55:04.685Z,95.75
2022-11-10T18:59:24.997Z,110.30
2022-11-10T19:03:45.865Z,90.95
2022-11-10T19:08:08.061Z,103.40
2022-11-10T19:12:28.255Z,123.78
2022-11-10T19:16:48.853Z,103.68
2022-11-10T19:21:14.952Z,94.50
2022-11-10T19:25:35.191Z,126.60
2022-11-10T19:29:55.500Z,126.40
2022-11-10T19:34:18.831Z,101.85
2022-11-10T19:38:39.789Z,89.07
2022-11-10T19:43:00.209Z,358.70
2022-11-10T19:47:20.991Z,178.23
2022-11-10T19:51:41.073Z,218.85
2022-11-10T19:56:05.051Z,137.00
2022-11-10T20:00:25.864Z,150.60
2022-11-10T20:05:05.065Z,160.20
2022-11-10T20:09:25.319Z,90.93
2022-11-10T20:13:46.017Z,117.78
2022-11-10T20:18:07.137Z,90.43
2022-11-10T20:22:27.671Z,98.07
2022-11-10T20:26:49.805Z,74.18
2022-11-10T20:31:16.233Z,85.63
2022-11-10T20:35:41.396Z,72.88
2022-11-10T20:40:07.332Z,83.85
2022-11-10T20:44:39.781Z,57.83
2022-11-10T20:49:00.343Z,73.13
2022-11-10T20:53:21.219Z,68.28
2022-11-10T20:57:41.911Z,71.57
2022-11-10T21:02:02.896Z,62.28
2022-11-10T21:06:23.225Z,65.97
2022-11-10T21:10:50.117Z,75.55
2022-11-10T21:15:10.398Z,77.10
2022-11-10T21:19:35.058Z,101.15
2022-11-10T21:23:57.423Z,118.13
2022-11-10T21:28:18.327Z,87.60
2022-11-10T21:32:38.592Z,129.02
2022-11-10T21:36:59.077Z,115.13
2022-11-10T21:41:19.434Z,105.40
2022-11-10T21:45:40.153Z,96.10
2022-11-10T21:50:00.223Z,89.82
2022-11-10T21:54:20.973Z,74.32
2022-11-10T21:58:41.106Z,66.63
2022-11-10T22:03:03.786Z,73.97
2022-11-10T22:07:23.973Z,71.60
2022-11-10T22:12:03.260Z,61.72
2022-11-10T22:16:47.522Z,81.88
2022-11-10T22:21:08.652Z,77.53
2022-11-10T22:25:28.647Z,55.42
2022-11-10T22:29:49.260Z,61.10
2022-11-10T22:34:09.448Z,71.10
2022-11-10T22:38:37.586Z,74.45
2022-11-10T22:43:16.297Z,66.07
2022-11-10T22:47:55.637Z,94.95
2022-11-10T22:52:15.796Z,92.20
2022-11-10T22:56:36.616Z,112.78
2022-11-10T23:01:07.294Z,95.22
2022-11-10T23:05:28.006Z,96.82
2022-11-10T23:09:48.174Z,90.82
2022-11-10T23:14:10.314Z,94.40
2022-11-10T23:18:30.915Z,90.10
2022-11-10T23:22:51.354Z,67.35
2022-11-10T23:27:11.412Z,68.95
2022-11-10T23:31:32.025Z,54.22
2022-11-10T23:35:52.132Z,57.42
2022-11-10T23:40:12.920Z,57.85
2022-11-10T23:44:33.196Z,62.67
2022-11-10T23:48:54.011Z,59.00
2022-11-10T23:53:14.667Z,53.88
2022-11-10T23:57:35.527Z,55.65
